Terminal Aerodrome Forecast
Issued by NWS Cleveland, OH

Home | Current Version | Previous Version | Graphics & Text | Print | Product List | Glossary On
Versions: 1 2 3 4 5 6 7 8 9 10 11 12 13 14 15 16
000
FTUS41 KCLE 110500
TAFYNG
TAF
KYNG 110530Z 1106/1206 05005KT P6SM SKC
     FM110900 VRB03KT 5SM BR SKC
      TEMPO 1110/1112 2SM BR
     FM111300 05005KT P6SM SCT050=

USA.gov is the U.S. government's official web portal to all federal, state and local government web resources and services.